| time (UTC) | temp F | wind direction | speed MPH | gust MPH | rain 1hr in | rain 24hr in | rain mn in | humidity % | barometer mb |
| 20260509162356 | 79 | 242 | 1.0 | 1.0 | 0.00 | 0.00 | 0.00 | 21 | 1013.2 |
| 20260509161852 | 79 | 300 | 1.0 | 2.0 | 0.00 | 0.00 | 0.00 | 23 | 1013.0 |
| 20260509161348 | 79 | 32 | 1.0 | 1.0 | 0.00 | 0.00 | 0.00 | 24 | 1013.0 |
| 20260509160844 | 78 | 44 | 3.0 | 3.0 | 0.00 | 0.00 | 0.00 | 24 | 1012.9 |
| 20260509160340 | 79 | 108 | 3.0 | 3.0 | 0.00 | 0.00 | 0.00 | 21 | 1013.1 |
| 20260509155835 | 78 | 224 | 0.0 | 0.0 | 0.00 | 0.00 | 0.00 | 20 | 1013.2 |
| 20260509155332 | 78 | 134 | 2.0 | 2.0 | 0.00 | 0.00 | 0.00 | 20 | 1013.3 |
| 20260509154828 | 77 | 304 | 2.0 | 2.0 | 0.00 | 0.00 | 0.00 | 20 | 1013.3 |
| 20260509154325 | 77 | 359 | 3.0 | 3.0 | 0.00 | 0.00 | 0.00 | 21 | 1013.2 |
| 20260509153822 | 77 | 232 | 2.0 | 2.0 | 0.00 | 0.00 | 0.00 | 20 | 1013.2 |
| 20260509153318 | 76 | 355 | 3.0 | 3.0 | 0.00 | 0.00 | 0.00 | 21 | 1013.2 |
| 20260509152815 | 78 | 322 | 3.0 | 3.0 | 0.00 | 0.00 | 0.00 | 22 | 1013.3 |
| 20260509152311 | 76 | 219 | 0.0 | 0.0 | 0.00 | 0.00 | 0.00 | 24 | 1013.4 |
| 20260509151809 | 76 | 251 | 1.0 | 1.0 | 0.00 | 0.00 | 0.00 | 26 | 1013.4 |
| 20260509151305 | 76 | 275 | 2.0 | 2.0 | 0.00 | 0.00 | 0.00 | 25 | 1013.3 |
| 20260509150804 | 75 | 95 | 1.0 | 2.0 | 0.00 | 0.00 | 0.00 | 28 | 1013.1 |
| 20260509150301 | 73 | 216 | 1.0 | 1.0 | 0.00 | 0.00 | 0.00 | 27 | 1013.1 |
| 20260509145758 | 73 | 214 | 3.0 | 3.0 | 0.00 | 0.00 | 0.00 | 30 | 1013.3 |
| 20260509145257 | 73 | 200 | 3.0 | 3.0 | 0.00 | 0.00 | 0.00 | 31 | 1013.2 |
| 20260509144754 | 72 | 203 | 2.0 | 2.0 | 0.00 | 0.00 | 0.00 | 31 | 1013.5 |
| 20260509144251 | 71 | 206 | 1.0 | 1.0 | 0.00 | 0.00 | 0.00 | 33 | 1013.5 |
| 20260509143748 | 71 | 193 | 1.0 | 2.0 | 0.00 | 0.00 | 0.00 | 32 | 1013.6 |
| 20260509143246 | 70 | 209 | 1.0 | 1.0 | 0.00 | 0.00 | 0.00 | 35 | 1013.8 |
| 20260509142742 | 69 | 213 | 1.0 | 1.0 | 0.00 | 0.00 | 0.00 | 40 | 1013.5 |
| 20260509142238 | 68 | 213 | 1.0 | 1.0 | 0.00 | 0.00 | 0.00 | 32 | 1013.5 |
| 20260509141734 | 67 | 232 | 0.0 | 1.0 | 0.00 | 0.00 | 0.00 | 40 | 1013.4 |
| 20260509141231 | 66 | 193 | 2.0 | 2.0 | 0.00 | 0.00 | 0.00 | 39 | 1013.8 |
| 20260509140728 | 65 | 223 | 1.0 | 1.0 | 0.00 | 0.00 | 0.00 | 37 | 1013.5 |
| 20260509140225 | 64 | 240 | 1.0 | 1.0 | 0.00 | 0.00 | 0.00 | 39 | 1013.6 |
| 20260509135722 | 64 | 202 | 2.0 | 2.0 | 0.00 | 0.00 | 0.00 | 38 | 1013.3 |
| 20260509135220 | 64 | 219 | 0.0 | 0.0 | 0.00 | 0.00 | 0.00 | 38 | 1013.6 |
| 20260509134717 | 63 | 233 | 2.0 | 2.0 | 0.00 | 0.00 | 0.00 | 38 | 1013.4 |
| 20260509134214 | 63 | 225 | 1.0 | 2.0 | 0.00 | 0.00 | 0.00 | 37 | 1013.4 |
| 20260509133711 | 62 | 221 | 1.0 | 2.0 | 0.00 | 0.00 | 0.00 | 38 | 1013.3 |
| 20260509133208 | 62 | 210 | 2.0 | 2.0 | 0.00 | 0.00 | 0.00 | 38 | 1013.2 |
| 20260509132707 | 61 | 225 | 1.0 | 1.0 | 0.00 | 0.00 | 0.00 | 38 | 1013.2 |
| 20260509132205 | 61 | 225 | 1.0 | 1.0 | 0.00 | 0.00 | 0.00 | 40 | 1013.3 |
| 20260509131701 | 60 | 234 | 1.0 | 1.0 | 0.00 | 0.00 | 0.00 | 37 | 1013.1 |
| 20260509131158 | 60 | 255 | 1.0 | 2.0 | 0.00 | 0.00 | 0.00 | 39 | 1013.1 |
| 20260509130653 | 60 | 226 | 2.0 | 2.0 | 0.00 | 0.00 | 0.00 | 39 | 1012.9 |
| 20260509130150 | 60 | 234 | 2.0 | 2.0 | 0.00 | 0.00 | 0.00 | 39 | 1012.9 |
| 20260509125647 | 60 | 235 | 1.0 | 2.0 | 0.00 | 0.00 | 0.00 | 40 | 1013.0 |
| 20260509125143 | 60 | 258 | 2.0 | 2.0 | 0.00 | 0.00 | 0.00 | 40 | 1012.8 |
| 20260509124640 | 62 | 235 | 0.0 | 0.0 | 0.00 | 0.00 | 0.00 | 38 | 1012.7 |
| 20260509124137 | 61 | 190 | 3.0 | 3.0 | 0.00 | 0.00 | 0.00 | 37 | 1012.8 |
| 20260509123635 | 60 | 225 | 3.0 | 3.0 | 0.00 | 0.00 | 0.00 | 38 | 1012.8 |
| 20260509123131 | 60 | 211 | 1.0 | 1.0 | 0.00 | 0.00 | 0.00 | 41 | 1012.7 |
| 20260509122627 | 60 | 209 | 2.0 | 2.0 | 0.00 | 0.00 | 0.00 | 42 | 1012.8 |
| 20260509122124 | 60 | 202 | 1.0 | 1.0 | 0.00 | 0.00 | 0.00 | 42 | 1012.6 |
| 20260509121621 | 60 | 227 | 0.0 | 0.0 | 0.00 | 0.00 | 0.00 | 42 | 1012.6 |
| 20260509121119 | 60 | 196 | 2.0 | 2.0 | 0.00 | 0.00 | 0.00 | 40 | 1012.6 |
| 20260509120617 | 60 | 212 | 1.0 | 1.0 | 0.00 | 0.00 | 0.00 | 42 | 1012.8 |
| 20260509120115 | 60 | 208 | 1.0 | 1.0 | 0.00 | 0.00 | 0.00 | 42 | 1012.6 |
| 20260509115612 | 60 | 200 | 1.0 | 2.0 | 0.00 | 0.00 | 0.00 | 42 | 1012.6 |
| 20260509115109 | 60 | 212 | 1.0 | 1.0 | 0.00 | 0.00 | 0.00 | 40 | 1012.6 |
| 20260509114607 | 60 | 195 | 1.0 | 2.0 | 0.00 | 0.00 | 0.00 | 41 | 1012.8 |
| 20260509114106 | 61 | 220 | 0.0 | 0.0 | 0.00 | 0.00 | 0.00 | 40 | 1012.6 |
| 20260509113604 | 63 | 172 | 2.0 | 2.0 | 0.00 | 0.00 | 0.00 | 37 | 1012.8 |
| 20260509113101 | 64 | 182 | 2.0 | 2.0 | 0.00 | 0.00 | 0.00 | 34 | 1012.5 |
| 20260509112557 | 63 | 204 | 2.0 | 2.0 | 0.00 | 0.00 | 0.00 | 35 | 1012.6 |
| 20260509112054 | 63 | 195 | 2.0 | 2.0 | 0.00 | 0.00 | 0.00 | 37 | 1012.7 |
| 20260509111552 | 63 | 150 | 2.0 | 2.0 | 0.00 | 0.00 | 0.00 | 35 | 1012.5 |
| 20260509111048 | 63 | 189 | 1.0 | 2.0 | 0.00 | 0.00 | 0.00 | 36 | 1012.6 |
| 20260509110545 | 64 | 183 | 2.0 | 2.0 | 0.00 | 0.00 | 0.00 | 35 | 1012.6 |
| 20260509110042 | 63 | 215 | 1.0 | 1.0 | 0.00 | 0.00 | 0.00 | 36 | 1012.5 |
| 20260509105541 | 63 | 208 | 3.0 | 3.0 | 0.00 | 0.00 | 0.00 | 37 | 1012.6 |
| 20260509105038 | 62 | 185 | 3.0 | 3.0 | 0.00 | 0.00 | 0.00 | 38 | 1012.8 |
| 20260509104535 | 62 | 182 | 2.0 | 3.0 | 0.00 | 0.00 | 0.00 | 38 | 1012.8 |
| 20260509104032 | 63 | 178 | 3.0 | 3.0 | 0.00 | 0.00 | 0.00 | 37 | 1012.7 |
| 20260509103529 | 64 | 195 | 2.0 | 2.0 | 0.00 | 0.00 | 0.00 | 35 | 1012.9 |
| 20260509103028 | 66 | 119 | 2.0 | 2.0 | 0.00 | 0.00 | 0.00 | 33 | 1012.7 |
| 20260509102524 | 66 | 198 | 1.0 | 2.0 | 0.00 | 0.00 | 0.00 | 31 | 1012.6 |
| 20260509102021 | 68 | 218 | 0.0 | 0.0 | 0.00 | 0.00 | 0.00 | 29 | 1012.5 |
| 20260509101518 | 68 | 237 | 0.0 | 0.0 | 0.00 | 0.00 | 0.00 | 28 | 1012.6 |
| 20260509101015 | 69 | 215 | 1.0 | 2.0 | 0.00 | 0.00 | 0.00 | 27 | 1012.7 |
| 20260509100512 | 70 | 228 | 3.0 | 3.0 | 0.00 | 0.00 | 0.00 | 26 | 1012.6 |
| 20260509100009 | 71 | 247 | 7.0 | 8.0 | 0.00 | 0.00 | 0.00 | 25 | 1012.6 |
| 20260509095505 | 70 | 244 | 3.0 | 5.0 | 0.00 | 0.00 | 0.00 | 25 | 1012.4 |
| 20260509095003 | 70 | 275 | 3.0 | 3.0 | 0.00 | 0.00 | 0.00 | 26 | 1012.7 |
| 20260509094459 | 71 | 226 | 3.0 | 3.0 | 0.00 | 0.00 | 0.00 | 25 | 1012.6 |
| 20260509093956 | 71 | 268 | 5.0 | 6.0 | 0.00 | 0.00 | 0.00 | 26 | 1012.7 |
| 20260509093454 | 71 | 253 | 6.0 | 8.0 | 0.00 | 0.00 | 0.00 | 25 | 1012.6 |
| 20260509092951 | 71 | 312 | 5.0 | 6.0 | 0.00 | 0.00 | 0.00 | 26 | 1012.7 |
| 20260509092449 | 71 | 265 | 5.0 | 7.0 | 0.00 | 0.00 | 0.00 | 26 | 1012.6 |
| 20260509091948 | 70 | 265 | 7.0 | 7.0 | 0.00 | 0.00 | 0.00 | 26 | 1013.0 |
| 20260509091438 | 70 | 298 | 3.0 | 6.0 | 0.00 | 0.00 | 0.00 | 26 | 1012.8 |
| 20260509090936 | 70 | 298 | 5.0 | 7.0 | 0.00 | 0.00 | 0.00 | 26 | 1012.9 |
| 20260509090433 | 71 | 243 | 3.0 | 5.0 | 0.00 | 0.00 | 0.00 | 26 | 1012.7 |
| 20260509085931 | 71 | 276 | 6.0 | 8.0 | 0.00 | 0.00 | 0.00 | 25 | 1013.1 |
| 20260509085427 | 71 | 261 | 4.0 | 6.0 | 0.00 | 0.00 | 0.00 | 26 | 1013.0 |
| 20260509084923 | 70 | 312 | 3.0 | 6.0 | 0.00 | 0.00 | 0.00 | 27 | 1012.7 |
| 20260509084420 | 71 | 276 | 3.0 | 3.0 | 0.00 | 0.00 | 0.00 | 26 | 1012.9 |
| 20260509083918 | 72 | 252 | 4.0 | 5.0 | 0.00 | 0.00 | 0.00 | 26 | 1013.0 |
| 20260509083415 | 72 | 264 | 4.0 | 5.0 | 0.00 | 0.00 | 0.00 | 25 | 1013.3 |
| 20260509082912 | 72 | 272 | 6.0 | 8.0 | 0.00 | 0.00 | 0.00 | 26 | 1013.0 |
| 20260509082409 | 72 | 272 | 7.0 | 9.0 | 0.00 | 0.00 | 0.00 | 26 | 1012.9 |
| 20260509081906 | 72 | 264 | 7.0 | 9.0 | 0.00 | 0.00 | 0.00 | 26 | 1012.9 |
| 20260509081403 | 72 | 265 | 10.0 | 11.0 | 0.00 | 0.00 | 0.00 | 27 | 1013.3 |
| 20260509080900 | 71 | 231 | 7.0 | 9.0 | 0.00 | 0.00 | 0.00 | 27 | 1013.1 |
| 20260509080358 | 72 | 272 | 5.0 | 6.0 | 0.00 | 0.00 | 0.00 | 27 | 1013.0 |
| 20260509075857 | 72 | 282 | 4.0 | 5.0 | 0.00 | 0.00 | 0.00 | 27 | 1013.4 |
| 20260509075353 | 73 | 276 | 7.0 | 9.0 | 0.00 | 0.00 | 0.00 | 26 | 1013.1 |
| 20260509074850 | 73 | 281 | 9.0 | 11.0 | 0.00 | 0.00 | 0.00 | 26 | 1013.1 |
| 20260509074348 | 73 | 272 | 6.0 | 7.0 | 0.00 | 0.00 | 0.00 | 26 | 1013.2 |
| 20260509073844 | 73 | 234 | 11.0 | 14.0 | 0.00 | 0.00 | 0.00 | 26 | 1013.1 |
| 20260509073341 | 73 | 267 | 7.0 | 9.0 | 0.00 | 0.00 | 0.00 | 27 | 1013.4 |
| 20260509072837 | 73 | 265 | 9.0 | 10.0 | 0.00 | 0.00 | 0.00 | 28 | 1013.3 |
| 20260509072334 | 73 | 262 | 8.0 | 11.0 | 0.00 | 0.00 | 0.00 | 28 | 1013.4 |
| 20260509071830 | 73 | 266 | 8.0 | 10.0 | 0.00 | 0.00 | 0.00 | 28 | 1013.4 |
| 20260509071328 | 73 | 273 | 9.0 | 10.0 | 0.00 | 0.00 | 0.00 | 28 | 1013.5 |
| 20260509070825 | 73 | 243 | 8.0 | 10.0 | 0.00 | 0.00 | 0.00 | 28 | 1013.4 |
| 20260509070321 | 73 | 263 | 9.0 | 10.0 | 0.00 | 0.00 | 0.00 | 28 | 1013.3 |
| 20260509065818 | 73 | 271 | 13.0 | 15.0 | 0.00 | 0.00 | 0.00 | 28 | 1013.5 |
| 20260509065314 | 73 | 259 | 7.0 | 8.0 | 0.00 | 0.00 | 0.00 | 28 | 1013.2 |
| 20260509064810 | 73 | 278 | 9.0 | 11.0 | 0.00 | 0.00 | 0.00 | 29 | 1013.6 |
| 20260509064308 | 73 | 283 | 7.0 | 9.0 | 0.00 | 0.00 | 0.00 | 29 | 1013.5 |
| 20260509063805 | 73 | 262 | 9.0 | 13.0 | 0.00 | 0.00 | 0.00 | 29 | 1013.4 |
| 20260509063301 | 73 | 284 | 9.0 | 10.0 | 0.00 | 0.00 | 0.00 | 29 | 1013.6 |
| 20260509062758 | 74 | 278 | 11.0 | 14.0 | 0.00 | 0.00 | 0.00 | 28 | 1013.6 |
| 20260509062255 | 74 | 292 | 12.0 | 14.0 | 0.00 | 0.00 | 0.00 | 28 | 1013.6 |
| 20260509061752 | 74 | 294 | 5.0 | 7.0 | 0.00 | 0.00 | 0.00 | 29 | 1013.4 |
| 20260509061250 | 73 | 263 | 9.0 | 13.0 | 0.00 | 0.00 | 0.00 | 30 | 1013.3 |
| 20260509060747 | 73 | 267 | 8.0 | 9.0 | 0.00 | 0.00 | 0.00 | 31 | 1013.8 |
| 20260509060244 | 73 | 270 | 14.0 | 17.0 | 0.00 | 0.00 | 0.00 | 32 | 1013.6 |
| 20260509055739 | 73 | 265 | 7.0 | 9.0 | 0.00 | 0.00 | 0.00 | 33 | 1013.5 |
| 20260509055235 | 73 | 280 | 7.0 | 7.0 | 0.00 | 0.00 | 0.00 | 34 | 1013.9 |
| 20260509054732 | 73 | 268 | 9.0 | 10.0 | 0.00 | 0.00 | 0.00 | 34 | 1013.9 |
| 20260509054229 | 73 | 261 | 6.0 | 7.0 | 0.00 | 0.00 | 0.00 | 35 | 1013.6 |
| 20260509053728 | 73 | 225 | 6.0 | 8.0 | 0.00 | 0.00 | 0.00 | 35 | 1013.6 |
| 20260509053224 | 73 | 270 | 6.0 | 8.0 | 0.00 | 0.00 | 0.00 | 36 | 1013.6 |
| 20260509052722 | 73 | 260 | 7.0 | 8.0 | 0.00 | 0.00 | 0.00 | 36 | 1013.5 |
| 20260509052219 | 73 | 270 | 8.0 | 10.0 | 0.00 | 0.00 | 0.00 | 36 | 1013.8 |
| 20260509051717 | 73 | 258 | 7.0 | 10.0 | 0.00 | 0.00 | 0.00 | 37 | 1013.8 |
| 20260509051215 | 73 | 251 | 9.0 | 10.0 | 0.00 | 0.00 | 0.00 | 37 | 1013.3 |
| 20260509050712 | 73 | 264 | 8.0 | 9.0 | 0.00 | 0.00 | 0.00 | 38 | 1013.8 |
| 20260509050208 | 73 | 218 | 6.0 | 7.0 | 0.00 | 0.00 | 0.00 | 39 | 1013.9 |
| 20260509045705 | 73 | 250 | 7.0 | 7.0 | 0.00 | 0.00 | 0.00 | 38 | 1014.0 |
| 20260509045202 | 73 | 257 | 7.0 | 10.0 | 0.00 | 0.00 | 0.00 | 38 | 1013.8 |
| 20260509044659 | 73 | 258 | 7.0 | 9.0 | 0.00 | 0.00 | 0.00 | 38 | 1013.6 |
| 20260509044157 | 74 | 253 | 6.0 | 9.0 | 0.00 | 0.00 | 0.00 | 38 | 1013.4 |
| 20260509043653 | 73 | 256 | 14.0 | 16.0 | 0.00 | 0.00 | 0.00 | 39 | 1013.5 |
| 20260509043149 | 73 | 260 | 6.0 | 7.0 | 0.00 | 0.00 | 0.00 | 39 | 1013.6 |
| 20260509042646 | 74 | 272 | 10.0 | 13.0 | 0.00 | 0.00 | 0.00 | 37 | 1013.4 |
| 20260509042141 | 73 | 267 | 8.0 | 9.0 | 0.00 | 0.00 | 0.00 | 39 | 1013.5 |
| 20260509041638 | 73 | 255 | 4.0 | 5.0 | 0.00 | 0.00 | 0.00 | 41 | 1013.3 |
| 20260509041136 | 73 | 272 | 5.0 | 6.0 | 0.00 | 0.00 | 0.00 | 40 | 1013.1 |
| 20260509040634 | 73 | 268 | 7.0 | 8.0 | 0.00 | 0.00 | 0.00 | 42 | 1013.1 |
| 20260509040131 | 73 | 259 | 6.0 | 7.0 | 0.00 | 0.00 | 0.00 | 42 | 1013.2 |
| 20260509035628 | 73 | 271 | 9.0 | 9.0 | 0.00 | 0.00 | 0.00 | 42 | 1013.1 |
| 20260509035124 | 74 | 266 | 9.0 | 10.0 | 0.00 | 0.00 | 0.00 | 43 | 1013.1 |
| 20260509034622 | 74 | 243 | 8.0 | 9.0 | 0.00 | 0.00 | 0.00 | 43 | 1012.9 |
| 20260509034119 | 74 | 239 | 4.0 | 5.0 | 0.00 | 0.00 | 0.00 | 44 | 1013.1 |
| 20260509033616 | 74 | 226 | 7.0 | 8.0 | 0.00 | 0.00 | 0.00 | 46 | 1012.8 |
| 20260509033113 | 74 | 247 | 6.0 | 8.0 | 0.00 | 0.00 | 0.00 | 46 | 1013.2 |
| 20260509032610 | 74 | 269 | 9.0 | 10.0 | 0.00 | 0.00 | 0.00 | 44 | 1013.0 |
| 20260509032107 | 74 | 240 | 8.0 | 9.0 | 0.00 | 0.00 | 0.00 | 47 | 1012.9 |
| 20260509031605 | 74 | 264 | 6.0 | 7.0 | 0.00 | 0.00 | 0.00 | 46 | 1013.0 |
| 20260509031102 | 75 | 283 | 7.0 | 8.0 | 0.00 | 0.00 | 0.00 | 45 | 1012.9 |
| 20260509030600 | 75 | 231 | 7.0 | 8.0 | 0.00 | 0.00 | 0.00 | 46 | 1012.8 |
| 20260509030056 | 75 | 248 | 8.0 | 9.0 | 0.00 | 0.00 | 0.00 | 45 | 1012.6 |
| 20260509025553 | 76 | 263 | 7.0 | 7.0 | 0.00 | 0.00 | 0.00 | 42 | 1012.6 |
| 20260509025048 | 76 | 242 | 9.0 | 9.0 | 0.00 | 0.00 | 0.00 | 41 | 1012.7 |
| 20260509024544 | 76 | 243 | 4.0 | 5.0 | 0.00 | 0.00 | 0.00 | 44 | 1012.5 |
| 20260509024041 | 76 | 275 | 9.0 | 11.0 | 0.00 | 0.00 | 0.00 | 40 | 1012.5 |
| 20260509023539 | 76 | 234 | 9.0 | 9.0 | 0.00 | 0.00 | 0.00 | 46 | 1012.5 |
| 20260509023035 | 77 | 271 | 6.0 | 8.0 | 0.00 | 0.00 | 0.00 | 45 | 1012.4 |
| 20260509022532 | 77 | 269 | 8.0 | 10.0 | 0.00 | 0.00 | 0.00 | 44 | 1012.1 |
| 20260509022030 | 78 | 256 | 5.0 | 5.0 | 0.00 | 0.00 | 0.00 | 43 | 1012.2 |
| 20260509021526 | 78 | 302 | 7.0 | 8.0 | 0.00 | 0.00 | 0.00 | 42 | 1012.1 |
| 20260509021023 | 79 | 262 | 4.0 | 6.0 | 0.00 | 0.00 | 0.00 | 38 | 1012.5 |
| 20260509020522 | 79 | 275 | 6.0 | 7.0 | 0.00 | 0.00 | 0.00 | 38 | 1012.4 |
| 20260509020018 | 80 | 246 | 6.0 | 7.0 | 0.00 | 0.00 | 0.00 | 36 | 1012.2 |
| 20260509015517 | 80 | 261 | 5.0 | 7.0 | 0.00 | 0.00 | 0.00 | 35 | 1012.4 |
| 20260509015014 | 80 | 280 | 12.0 | 14.0 | 0.00 | 0.00 | 0.00 | 33 | 1012.1 |
| 20260509014511 | 81 | 269 | 16.0 | 18.0 | 0.00 | 0.00 | 0.00 | 30 | 1012.0 |
| 20260509014007 | 81 | 268 | 10.0 | 14.0 | 0.00 | 0.00 | 0.00 | 34 | 1012.4 |
| 20260509013504 | 81 | 280 | 8.0 | 11.0 | 0.00 | 0.00 | 0.00 | 33 | 1012.1 |
| 20260509012959 | 81 | 150 | 9.0 | 10.0 | 0.00 | 0.00 | 0.00 | 32 | 1012.1 |
| 20260509012456 | 82 | 257 | 9.0 | 10.0 | 0.00 | 0.00 | 0.00 | 31 | 1012.1 |
| 20260509011953 | 82 | 279 | 10.0 | 11.0 | 0.00 | 0.00 | 0.00 | 31 | 1012.2 |
| 20260509011451 | 82 | 333 | 9.0 | 10.0 | 0.00 | 0.00 | 0.00 | 32 | 1012.2 |
| 20260509010948 | 82 | 260 | 13.0 | 15.0 | 0.00 | 0.00 | 0.00 | 32 | 1012.0 |
| 20260509010445 | 82 | 276 | 13.0 | 15.0 | 0.00 | 0.00 | 0.00 | 33 | 1012.1 |
| 20260509005936 | 82 | 245 | 9.0 | 13.0 | 0.00 | 0.00 | 0.00 | 33 | 1012.2 |
| 20260509005435 | 82 | 281 | 11.0 | 13.0 | 0.00 | 0.00 | 0.00 | 33 | 1012.1 |
| 20260509004934 | 83 | 268 | 9.0 | 9.0 | 0.00 | 0.00 | 0.00 | 33 | 1012.0 |
| 20260509004431 | 83 | 287 | 9.0 | 11.0 | 0.00 | 0.00 | 0.00 | 34 | 1012.0 |
| 20260509003929 | 82 | 269 | 12.0 | 16.0 | 0.00 | 0.00 | 0.00 | 34 | 1012.2 |
| 20260509003427 | 82 | 268 | 13.0 | 15.0 | 0.00 | 0.00 | 0.00 | 34 | 1012.0 |
| 20260509002923 | 82 | 268 | 9.0 | 10.0 | 0.00 | 0.00 | 0.00 | 34 | 1012.2 |
| 20260509002422 | 83 | 268 | 14.0 | 15.0 | 0.00 | 0.00 | 0.00 | 34 | 1012.1 |
| 20260509001918 | 83 | 218 | 9.0 | 10.0 | 0.00 | 0.00 | 0.00 | 34 | 1011.9 |
| 20260509001415 | 83 | 233 | 11.0 | 14.0 | 0.00 | 0.00 | 0.00 | 34 | 1012.2 |
| 20260509000912 | 83 | 241 | 11.0 | 13.0 | 0.00 | 0.00 | 0.00 | 33 | 1012.4 |
| 20260509000410 | 83 | 268 | 10.0 | 13.0 | 0.00 | 0.00 | 0.00 | 34 | 1012.2 |
| 20260508235905 | 83 | 257 | 12.0 | 15.0 | 0.00 | 0.00 | 0.00 | 34 | 1012.1 |
| 20260508235403 | 84 | 260 | 14.0 | 16.0 | 0.00 | 0.00 | 0.00 | 33 | 1012.1 |
| 20260508234900 | 84 | 241 | 11.0 | 13.0 | 0.00 | 0.00 | 0.00 | 33 | 1012.1 |
| 20260508234356 | 84 | 250 | 11.0 | 13.0 | 0.00 | 0.00 | 0.00 | 33 | 1012.1 |
| 20260508233855 | 84 | 242 | 12.0 | 14.0 | 0.00 | 0.00 | 0.00 | 33 | 1012.4 |
| 20260508233354 | 84 | 250 | 9.0 | 13.0 | 0.00 | 0.00 | 0.00 | 33 | 1012.0 |
| 20260508232850 | 85 | 205 | 8.0 | 9.0 | 0.00 | 0.00 | 0.00 | 32 | 1012.5 |
| 20260508232346 | 85 | 276 | 11.0 | 15.0 | 0.00 | 0.00 | 0.00 | 33 | 1012.5 |
| 20260508231845 | 85 | 274 | 10.0 | 11.0 | 0.00 | 0.00 | 0.00 | 33 | 1012.6 |
| 20260508231341 | 85 | 261 | 13.0 | 14.0 | 0.00 | 0.00 | 0.00 | 34 | 1012.5 |
| 20260508230838 | 84 | 278 | 10.0 | 11.0 | 0.00 | 0.00 | 0.00 | 34 | 1012.4 |
| 20260508230334 | 86 | 208 | 11.0 | 13.0 | 0.00 | 0.00 | 0.00 | 33 | 1012.4 |
| 20260508225832 | 86 | 281 | 10.0 | 13.0 | 0.00 | 0.00 | 0.00 | 33 | 1012.4 |
| 20260508225328 | 87 | 255 | 13.0 | 16.0 | 0.00 | 0.00 | 0.00 | 33 | 1012.2 |
| 20260508224826 | 86 | 229 | 10.0 | 11.0 | 0.00 | 0.00 | 0.00 | 32 | 1012.6 |
| 20260508224324 | 86 | 292 | 11.0 | 14.0 | 0.00 | 0.00 | 0.00 | 32 | 1012.2 |
| 20260508223821 | 86 | 232 | 7.0 | 9.0 | 0.00 | 0.00 | 0.00 | 33 | 1012.1 |
| 20260508223318 | 86 | 239 | 11.0 | 13.0 | 0.00 | 0.00 | 0.00 | 33 | 1012.5 |
| 20260508222816 | 87 | 258 | 11.0 | 14.0 | 0.00 | 0.00 | 0.00 | 31 | 1012.4 |
| 20260508222313 | 87 | 293 | 9.0 | 10.0 | 0.00 | 0.00 | 0.00 | 30 | 1012.5 |
| 20260508221809 | 87 | 276 | 7.0 | 10.0 | 0.00 | 0.00 | 0.00 | 29 | 1012.6 |
| 20260508221305 | 87 | 280 | 13.0 | 15.0 | 0.00 | 0.00 | 0.00 | 30 | 1012.7 |
| 20260508220801 | 88 | 250 | 12.0 | 14.0 | 0.00 | 0.00 | 0.00 | 28 | 1012.6 |
| 20260508220258 | 87 | 276 | 8.0 | 10.0 | 0.00 | 0.00 | 0.00 | 27 | 1012.8 |
| 20260508215754 | 88 | 289 | 3.0 | 3.0 | 0.00 | 0.00 | 0.00 | 27 | 1012.8 |
| 20260508215251 | 87 | 243 | 10.0 | 13.0 | 0.00 | 0.00 | 0.00 | 27 | 1012.8 |
| 20260508214748 | 87 | 248 | 9.0 | 9.0 | 0.00 | 0.00 | 0.00 | 27 | 1012.8 |
| 20260508214245 | 87 | 258 | 5.0 | 8.0 | 0.00 | 0.00 | 0.00 | 27 | 1012.8 |
| 20260508213742 | 87 | 248 | 7.0 | 8.0 | 0.00 | 0.00 | 0.00 | 26 | 1012.8 |
| 20260508213239 | 87 | 253 | 8.0 | 11.0 | 0.00 | 0.00 | 0.00 | 28 | 1013.0 |
| 20260508212735 | 87 | 295 | 7.0 | 8.0 | 0.00 | 0.00 | 0.00 | 27 | 1013.0 |
| 20260508212231 | 87 | 168 | 7.0 | 9.0 | 0.00 | 0.00 | 0.00 | 28 | 1013.1 |
| 20260508211727 | 87 | 243 | 5.0 | 7.0 | 0.00 | 0.00 | 0.00 | 28 | 1012.9 |
| 20260508211223 | 87 | 284 | 11.0 | 13.0 | 0.00 | 0.00 | 0.00 | 28 | 1013.0 |
| 20260508210721 | 86 | 244 | 8.0 | 9.0 | 0.00 | 0.00 | 0.00 | 30 | 1013.2 |
| 20260508210218 | 86 | 235 | 8.0 | 9.0 | 0.00 | 0.00 | 0.00 | 30 | 1013.1 |
| 20260508205714 | 86 | 255 | 9.0 | 11.0 | 0.00 | 0.00 | 0.00 | 31 | 1013.4 |
| 20260508205211 | 86 | 256 | 12.0 | 15.0 | 0.00 | 0.00 | 0.00 | 31 | 1013.3 |
| 20260508204707 | 87 | 246 | 10.0 | 10.0 | 0.00 | 0.00 | 0.00 | 31 | 1013.2 |
| 20260508204204 | 87 | 258 | 14.0 | 17.0 | 0.00 | 0.00 | 0.00 | 31 | 1013.3 |
| 20260508203659 | 87 | 307 | 9.0 | 10.0 | 0.00 | 0.00 | 0.00 | 25 | 1013.4 |
| 20260508203156 | 87 | 291 | 9.0 | 11.0 | 0.00 | 0.00 | 0.00 | 25 | 1013.6 |
| 20260508202652 | 87 | 316 | 4.0 | 7.0 | 0.00 | 0.00 | 0.00 | 23 | 1013.4 |
| 20260508202150 | 87 | 265 | 7.0 | 8.0 | 0.00 | 0.00 | 0.00 | 26 | 1013.4 |
| 20260508201646 | 87 | 271 | 4.0 | 6.0 | 0.00 | 0.00 | 0.00 | 25 | 1013.5 |
| 20260508201143 | 88 | 220 | 6.0 | 9.0 | 0.00 | 0.00 | 0.00 | 24 | 1013.5 |
| 20260508200640 | 87 | 324 | 7.0 | 8.0 | 0.00 | 0.00 | 0.00 | 20 | 1013.4 |
| 20260508200136 | 87 | 306 | 12.0 | 15.0 | 0.00 | 0.00 | 0.00 | 22 | 1013.5 |
| 20260508195633 | 86 | 327 | 7.0 | 13.0 | 0.00 | 0.00 | 0.00 | 23 | 1013.8 |
| 20260508195129 | 86 | 281 | 4.0 | 5.0 | 0.00 | 0.00 | 0.00 | 25 | 1013.6 |
| 20260508194626 | 87 | 286 | 7.0 | 9.0 | 0.00 | 0.00 | 0.00 | 23 | 1013.5 |
| 20260508194123 | 87 | 10 | 6.0 | 7.0 | 0.00 | 0.00 | 0.00 | 22 | 1013.8 |
| 20260508193620 | 86 | 264 | 5.0 | 7.0 | 0.00 | 0.00 | 0.00 | 21 | 1013.9 |
| 20260508193116 | 86 | 302 | 4.0 | 5.0 | 0.00 | 0.00 | 0.00 | 21 | 1013.9 |
| 20260508192613 | 86 | 281 | 9.0 | 11.0 | 0.00 | 0.00 | 0.00 | 20 | 1013.9 |
| 20260508192110 | 86 | 280 | 7.0 | 8.0 | 0.00 | 0.00 | 0.00 | 21 | 1014.0 |
| 20260508191607 | 86 | 246 | 4.0 | 6.0 | 0.00 | 0.00 | 0.00 | 22 | 1014.1 |
| 20260508191104 | 86 | 277 | 3.0 | 5.0 | 0.00 | 0.00 | 0.00 | 23 | 1013.9 |
| 20260508190601 | 85 | 254 | 7.0 | 8.0 | 0.00 | 0.00 | 0.00 | 21 | 1014.1 |
| 20260508190057 | 85 | 225 | 3.0 | 3.0 | 0.00 | 0.00 | 0.00 | 24 | 1014.1 |
| 20260508185554 | 85 | 247 | 5.0 | 6.0 | 0.00 | 0.00 | 0.00 | 24 | 1014.1 |
| 20260508185052 | 85 | 319 | 6.0 | 7.0 | 0.00 | 0.00 | 0.00 | 24 | 1014.2 |
| 20260508184549 | 85 | 296 | 5.0 | 6.0 | 0.00 | 0.00 | 0.00 | 24 | 1014.3 |
| 20260508184046 | 85 | 333 | 6.0 | 7.0 | 0.00 | 0.00 | 0.00 | 25 | 1014.3 |
| 20260508183542 | 84 | 13 | 5.0 | 6.0 | 0.00 | 0.00 | 0.00 | 26 | 1014.6 |
| 20260508183038 | 84 | 35 | 8.0 | 9.0 | 0.00 | 0.00 | 0.00 | 26 | 1014.4 |
| 20260508182535 | 84 | 331 | 8.0 | 9.0 | 0.00 | 0.00 | 0.00 | 26 | 1014.5 |
| 20260508182032 | 84 | 353 | 9.0 | 14.0 | 0.00 | 0.00 | 0.00 | 26 | 1014.4 |
| 20260508181527 | 83 | 233 | 1.0 | 2.0 | 0.00 | 0.00 | 0.00 | 27 | 1014.3 |
| 20260508181025 | 83 | 319 | 7.0 | 8.0 | 0.00 | 0.00 | 0.00 | 26 | 1014.7 |
| 20260508180521 | 83 | 349 | 3.0 | 6.0 | 0.00 | 0.00 | 0.00 | 26 | 1014.6 |
| 20260508180017 | 82 | 3 | 11.0 | 14.0 | 0.00 | 0.00 | 0.00 | 27 | 1014.6 |
| 20260508175514 | 82 | 49 | 3.0 | 5.0 | 0.00 | 0.00 | 0.00 | 29 | 1014.6 |
| 20260508175012 | 82 | 240 | 4.0 | 5.0 | 0.00 | 0.00 | 0.00 | 28 | 1014.8 |
| 20260508174509 | 81 | 267 | 7.0 | 9.0 | 0.00 | 0.00 | 0.00 | 29 | 1014.8 |
| 20260508174006 | 81 | 258 | 1.0 | 2.0 | 0.00 | 0.00 | 0.00 | 30 | 1014.7 |
| 20260508173503 | 81 | 323 | 4.0 | 5.0 | 0.00 | 0.00 | 0.00 | 32 | 1015.0 |
| 20260508172959 | 81 | 313 | 7.0 | 9.0 | 0.00 | 0.00 | 0.00 | 31 | 1014.9 |
| 20260508172456 | 80 | 293 | 3.0 | 5.0 | 0.00 | 0.00 | 0.00 | 33 | 1015.3 |
| 20260508171952 | 81 | 14 | 10.0 | 13.0 | 0.00 | 0.00 | 0.00 | 32 | 1015.2 |
| 20260508171449 | 80 | 309 | 4.0 | 5.0 | 0.00 | 0.00 | 0.00 | 32 | 1015.0 |
| 20260508170945 | 80 | 18 | 5.0 | 7.0 | 0.00 | 0.00 | 0.00 | 32 | 1015.0 |
| 20260508170443 | 79 | 314 | 6.0 | 7.0 | 0.00 | 0.00 | 0.00 | 34 | 1015.0 |
| 20260508165939 | 80 | 347 | 8.0 | 11.0 | 0.00 | 0.00 | 0.00 | 33 | 1015.3 |
| 20260508165438 | 79 | 312 | 9.0 | 13.0 | 0.00 | 0.00 | 0.00 | 33 | 1014.9 |
| 20260508164933 | 79 | 2 | 12.0 | 14.0 | 0.00 | 0.00 | 0.00 | 34 | 1014.8 |
| 20260508164430 | 79 | 316 | 10.0 | 13.0 | 0.00 | 0.00 | 0.00 | 34 | 1015.3 |
| 20260508163927 | 78 | 4 | 11.0 | 13.0 | 0.00 | 0.00 | 0.00 | 35 | 1015.0 |
| 20260508163425 | 78 | 301 | 17.0 | 20.0 | 0.00 | 0.00 | 0.00 | 34 | 1015.2 |
| 20260508162920 | 78 | 4 | 9.0 | 10.0 | 0.00 | 0.00 | 0.00 | 34 | 1015.3 |